createdAt,value
2019-01-06T00:02:33.498Z,9.90
2019-01-06T00:05:08.824Z,9.90
2019-01-06T00:07:45.974Z,10.00
2019-01-06T00:10:18.920Z,10.00
2019-01-06T00:12:59.392Z,10.00
2019-01-06T00:18:42.723Z,9.90
2019-01-06T00:21:15.502Z,9.90
2019-01-06T00:23:48.163Z,9.90
2019-01-06T00:26:23.409Z,9.90
2019-01-06T00:28:58.291Z,10.00
2019-01-06T00:31:31.251Z,9.90
2019-01-06T00:34:15.684Z,9.90
2019-01-06T00:36:48.170Z,9.90
2019-01-06T00:42:16.021Z,9.60
2019-01-06T00:45:02.803Z,9.60
2019-01-06T00:47:38.522Z,9.50
2019-01-06T00:50:23.840Z,9.50
2019-01-06T00:53:09.537Z,9.60
2019-01-06T00:55:44.358Z,9.60
2019-01-06T00:58:21.766Z,9.60
2019-01-06T01:01:01.802Z,9.60
2019-01-06T01:03:37.011Z,9.50
2019-01-06T01:06:12.603Z,9.50
2019-01-06T01:08:43.659Z,9.50
2019-01-06T01:11:18.375Z,9.50
2019-01-06T01:16:49.747Z,9.60
2019-01-06T01:19:20.052Z,9.60
2019-01-06T01:21:55.226Z,9.60
2019-01-06T01:24:37.771Z,9.60
2019-01-06T01:27:11.296Z,9.60
2019-01-06T01:29:53.832Z,9.50
2019-01-06T01:35:28.894Z,9.50
2019-01-06T01:38:03.929Z,9.40
2019-01-06T01:40:39.290Z,9.30
2019-01-06T01:43:18.197Z,9.40
2019-01-06T01:45:50.623Z,9.50
2019-01-06T01:48:36.711Z,9.50
2019-01-06T01:51:11.704Z,9.40
2019-01-06T01:53:45.124Z,9.50
2019-01-06T01:56:20.261Z,9.50
2019-01-06T01:58:58.746Z,9.60
2019-01-06T02:01:38.698Z,9.60
2019-01-06T02:04:27.208Z,9.60
2019-01-06T02:07:03.316Z,9.60
2019-01-06T02:09:44.683Z,9.50
2019-01-06T02:12:19.333Z,9.50
2019-01-06T02:14:54.380Z,9.50
2019-01-06T02:20:25.680Z,9.60
2019-01-06T02:22:58.184Z,9.50
2019-01-06T02:25:28.929Z,9.40
2019-01-06T02:28:04.602Z,9.40
2019-01-06T02:30:49.289Z,9.40
2019-01-06T02:33:37.569Z,9.40
2019-01-06T02:36:22.837Z,9.40
2019-01-06T02:39:07.721Z,9.40
2019-01-06T02:41:43.268Z,9.30
2019-01-06T02:44:17.043Z,9.30
2019-01-06T02:46:49.118Z,9.30
2019-01-06T02:49:21.434Z,9.30
2019-01-06T02:54:48.134Z,9.20
2019-01-06T02:57:38.459Z,9.20
2019-01-06T03:00:26.480Z,9.10
2019-01-06T03:03:12.273Z,9.10
2019-01-06T03:05:47.237Z,9.10
2019-01-06T03:08:28.591Z,9.20
2019-01-06T03:11:09.441Z,9.10
2019-01-06T03:13:51.483Z,9.20
2019-01-06T03:16:25.570Z,9.20
2019-01-06T03:19:01.202Z,9.20
2019-01-06T03:21:32.251Z,9.20
2019-01-06T03:24:12.900Z,9.20
2019-01-06T03:26:47.984Z,9.20
2019-01-06T03:29:18.422Z,9.10
2019-01-06T03:34:52.225Z,9.10
2019-01-06T03:37:36.783Z,9.00
2019-01-06T03:40:11.483Z,9.00
2019-01-06T03:43:00.198Z,9.00
2019-01-06T03:45:32.453Z,9.00
2019-01-06T03:48:05.711Z,9.00
2019-01-06T03:53:49.499Z,8.90
2019-01-06T03:56:24.418Z,8.80
2019-01-06T03:58:59.119Z,8.80
2019-01-06T04:01:29.488Z,8.80
2019-01-06T04:04:19.123Z,8.80
2019-01-06T04:06:53.138Z,8.80
2019-01-06T04:09:23.382Z,8.80
2019-01-06T04:11:56.250Z,8.80
2019-01-06T04:14:32.032Z,8.80
2019-01-06T04:17:07.033Z,8.80
2019-01-06T04:19:54.691Z,8.80
2019-01-06T04:22:30.551Z,8.80
2019-01-06T04:25:05.414Z,8.80
2019-01-06T04:27:55.044Z,8.80
2019-01-06T04:30:37.616Z,8.90
2019-01-06T04:33:15.782Z,8.80
2019-01-06T04:35:50.674Z,8.80
2019-01-06T04:38:27.319Z,8.80
2019-01-06T04:41:02.908Z,8.80
2019-01-06T04:43:33.891Z,8.90
2019-01-06T04:49:04.523Z,8.80
2019-01-06T04:51:37.996Z,8.70
2019-01-06T04:54:13.580Z,8.70
2019-01-06T04:59:48.422Z,8.60
2019-01-06T05:02:26.462Z,8.60
2019-01-06T05:05:02.237Z,8.60
2019-01-06T05:10:32.940Z,8.40
2019-01-06T05:13:14.923Z,8.40
2019-01-06T05:18:44.421Z,8.40
2019-01-06T05:21:17.933Z,8.30
2019-01-06T05:23:53.316Z,8.30
2019-01-06T05:26:27.409Z,8.30
2019-01-06T05:29:02.540Z,8.30
2019-01-06T05:31:49.139Z,8.20
2019-01-06T05:34:35.712Z,8.20
2019-01-06T05:37:12.389Z,8.20
2019-01-06T05:39:45.802Z,8.10
2019-01-06T05:42:17.547Z,8.10
2019-01-06T05:45:05.187Z,8.00
2019-01-06T05:47:38.607Z,7.90
2019-01-06T05:50:11.338Z,7.90
2019-01-06T05:52:40.897Z,7.90
2019-01-06T05:55:15.869Z,8.00
2019-01-06T05:57:46.484Z,8.00
2019-01-06T06:03:02.453Z,8.10
2019-01-06T06:08:42.864Z,7.90
2019-01-06T06:11:28.219Z,7.90
2019-01-06T06:14:00.810Z,7.90
2019-01-06T06:16:34.467Z,7.90
2019-01-06T06:19:06.821Z,7.90
2019-01-06T06:24:47.273Z,7.90
2019-01-06T06:27:22.514Z,7.90
2019-01-06T06:30:02.101Z,7.90
2019-01-06T06:32:37.433Z,7.80
2019-01-06T06:35:22.333Z,7.80
2019-01-06T06:37:55.778Z,7.90
2019-01-06T06:40:31.353Z,8.00
2019-01-06T06:43:05.758Z,8.00
2019-01-06T06:45:52.811Z,8.00
2019-01-06T06:48:25.867Z,8.00
2019-01-06T06:50:57.294Z,8.00
2019-01-06T06:53:32.234Z,8.00
2019-01-06T06:56:04.667Z,8.00
2019-01-06T06:58:45.229Z,8.00
2019-01-06T07:01:25.744Z,8.00
2019-01-06T07:06:56.513Z,8.20
2019-01-06T07:12:27.383Z,8.20
2019-01-06T07:17:57.047Z,8.10
2019-01-06T07:20:28.141Z,8.10
2019-01-06T07:23:03.566Z,8.20
2019-01-06T07:25:53.845Z,8.20
2019-01-06T07:28:41.463Z,8.30
2019-01-06T07:31:27.766Z,8.30
2019-01-06T07:34:04.095Z,8.30
2019-01-06T07:36:50.700Z,8.40
2019-01-06T07:39:23.651Z,8.50
2019-01-06T07:41:54.211Z,8.50
2019-01-06T07:44:24.690Z,8.40
2019-01-06T07:47:11.117Z,8.30
2019-01-06T07:49:41.528Z,8.30
2019-01-06T07:52:26.132Z,8.30
2019-01-06T07:54:58.740Z,8.30
2019-01-06T07:57:45.002Z,8.30
2019-01-06T08:00:15.685Z,8.30
2019-01-06T08:02:50.398Z,8.30
2019-01-06T08:05:21.755Z,8.30
2019-01-06T08:07:56.096Z,8.30
2019-01-06T08:10:26.262Z,8.30
2019-01-06T08:13:12.292Z,8.30
2019-01-06T08:18:36.993Z,8.30
2019-01-06T08:21:24.571Z,8.30
2019-01-06T08:24:00.868Z,8.20
2019-01-06T08:26:35.184Z,8.20
2019-01-06T08:29:25.969Z,8.20
2019-01-06T08:31:58.322Z,8.20
2019-01-06T08:34:38.440Z,8.20
2019-01-06T08:37:21.638Z,8.20
2019-01-06T08:39:55.091Z,8.20
2019-01-06T08:42:28.396Z,8.20
2019-01-06T08:45:04.064Z,8.30
2019-01-06T08:47:50.666Z,8.30
2019-01-06T08:50:25.954Z,8.30
2019-01-06T08:53:01.003Z,8.40
2019-01-06T08:55:32.062Z,8.40
2019-01-06T08:58:07.525Z,8.40
2019-01-06T09:00:42.598Z,8.40
2019-01-06T09:03:17.506Z,8.30
2019-01-06T09:06:02.818Z,8.30
2019-01-06T09:08:33.227Z,8.30
2019-01-06T09:11:09.099Z,8.40
2019-01-06T09:13:54.435Z,8.30
2019-01-06T09:19:32.311Z,8.20
2019-01-06T09:22:05.371Z,8.20
2019-01-06T09:24:40.403Z,8.20
2019-01-06T09:27:23.425Z,8.20
2019-01-06T09:30:05.098Z,8.30
2019-01-06T09:32:47.920Z,8.30
2019-01-06T09:35:19.533Z,8.30
2019-01-06T09:37:54.361Z,8.40
2019-01-06T09:40:23.635Z,8.40
2019-01-06T09:43:10.747Z,8.40
2019-01-06T09:45:45.955Z,8.40
2019-01-06T09:48:21.968Z,8.40
2019-01-06T09:51:02.881Z,8.40
2019-01-06T09:53:37.033Z,8.40
2019-01-06T09:59:05.607Z,8.40
2019-01-06T10:01:52.854Z,8.40
2019-01-06T10:04:34.983Z,8.40
2019-01-06T10:07:01.424Z,8.40
2019-01-06T10:09:37.219Z,8.40
2019-01-06T10:15:04.198Z,8.30
2019-01-06T10:17:39.518Z,8.20
2019-01-06T10:20:24.420Z,8.20
2019-01-06T10:23:05.353Z,8.30
2019-01-06T10:25:54.343Z,8.40
2019-01-06T10:28:27.558Z,8.30
2019-01-06T10:31:02.483Z,8.20
2019-01-06T10:36:28.190Z,8.30
2019-01-06T10:39:03.281Z,8.30
2019-01-06T10:41:48.620Z,8.30
2019-01-06T10:44:18.407Z,8.30
2019-01-06T10:47:05.282Z,8.30
2019-01-06T10:52:30.652Z,8.30
2019-01-06T10:55:05.561Z,8.20
2019-01-06T10:57:51.211Z,8.20
2019-01-06T11:00:28.130Z,8.30
2019-01-06T11:03:03.128Z,8.30
2019-01-06T11:08:30.571Z,8.40
2019-01-06T11:11:01.024Z,8.40
2019-01-06T11:13:31.524Z,8.40
2019-01-06T11:16:18.938Z,8.40
2019-01-06T11:22:00.301Z,8.10
2019-01-06T11:24:35.824Z,7.80
2019-01-06T11:27:20.940Z,7.80
2019-01-06T11:29:55.302Z,7.90
2019-01-06T11:32:41.471Z,8.00
2019-01-06T11:35:26.007Z,8.00
2019-01-06T11:38:11.300Z,8.00
2019-01-06T11:40:44.091Z,8.00
2019-01-06T11:43:19.835Z,8.10
2019-01-06T11:45:55.648Z,8.10
2019-01-06T11:48:30.502Z,8.10
2019-01-06T11:51:04.608Z,8.10
2019-01-06T11:56:36.741Z,8.20
2019-01-06T11:59:15.805Z,8.10
2019-01-06T12:01:50.609Z,8.10
2019-01-06T12:04:26.161Z,8.10
2019-01-06T12:06:59.565Z,8.10
2019-01-06T12:12:28.345Z,8.00
2019-01-06T12:15:04.642Z,8.00
2019-01-06T12:17:37.235Z,8.10
2019-01-06T12:23:21.415Z,8.10
2019-01-06T12:25:52.841Z,8.00
2019-01-06T12:28:28.272Z,8.10
2019-01-06T12:31:14.831Z,8.00
2019-01-06T12:33:49.803Z,8.00
2019-01-06T12:36:23.077Z,8.00
2019-01-06T12:38:57.011Z,7.90
2019-01-06T12:41:32.190Z,7.90
2019-01-06T12:44:21.586Z,7.80
2019-01-06T12:46:52.313Z,7.70
2019-01-06T12:49:26.890Z,7.50
2019-01-06T12:52:02.140Z,7.50
2019-01-06T12:54:38.096Z,7.40
2019-01-06T12:57:13.183Z,7.30
2019-01-06T12:59:47.782Z,7.30
2019-01-06T13:02:29.209Z,7.30
2019-01-06T13:05:04.387Z,7.20
2019-01-06T13:07:37.709Z,7.00
2019-01-06T13:10:07.795Z,7.00
2019-01-06T13:15:48.684Z,6.80
2019-01-06T13:18:23.541Z,6.70
2019-01-06T13:20:59.786Z,6.70
2019-01-06T13:23:40.506Z,6.60
2019-01-06T13:29:06.214Z,6.60
2019-01-06T13:31:39.508Z,6.60
2019-01-06T13:34:09.956Z,6.80
2019-01-06T13:36:54.709Z,6.70
2019-01-06T13:39:29.116Z,6.80
2019-01-06T13:42:03.598Z,7.00
2019-01-06T13:44:37.198Z,7.00
2019-01-06T13:47:27.884Z,7.00
2019-01-06T13:50:12.510Z,7.00
2019-01-06T13:52:44.540Z,7.00
2019-01-06T13:55:19.708Z,6.90
2019-01-06T13:57:55.808Z,6.90
2019-01-06T14:00:31.142Z,6.90
2019-01-06T14:06:06.620Z,6.90
2019-01-06T14:08:54.244Z,6.90
2019-01-06T14:11:25.475Z,6.70
2019-01-06T14:14:00.752Z,6.70
2019-01-06T14:16:33.432Z,6.70
2019-01-06T14:22:00.651Z,6.70
2019-01-06T14:24:32.364Z,6.70
2019-01-06T14:27:20.779Z,6.70
2019-01-06T14:30:08.343Z,6.70
2019-01-06T14:32:39.206Z,6.70
2019-01-06T14:35:24.921Z,6.60
2019-01-06T14:37:55.740Z,6.60
2019-01-06T14:40:29.348Z,6.60
2019-01-06T14:43:01.873Z,6.50
2019-01-06T14:45:38.534Z,6.50
2019-01-06T14:48:11.944Z,6.50
2019-01-06T14:50:47.206Z,6.50
2019-01-06T14:53:21.217Z,6.50
2019-01-06T14:55:56.300Z,6.40
2019-01-06T14:58:39.477Z,6.40
2019-01-06T15:01:14.245Z,6.40
2019-01-06T15:06:46.530Z,6.30
2019-01-06T15:09:20.273Z,6.20
2019-01-06T15:12:07.743Z,6.20
2019-01-06T15:14:44.496Z,6.10
2019-01-06T15:20:13.820Z,6.20
2019-01-06T15:22:43.725Z,6.10
2019-01-06T15:25:33.086Z,6.10
2019-01-06T15:28:03.729Z,6.20
2019-01-06T15:30:48.972Z,6.20
2019-01-06T15:33:26.805Z,6.20
2019-01-06T15:36:01.839Z,6.20
2019-01-06T15:38:49.201Z,6.20
2019-01-06T15:41:34.084Z,6.20
2019-01-06T15:44:21.999Z,6.20
2019-01-06T15:49:54.090Z,6.10
2019-01-06T15:52:27.106Z,6.00
2019-01-06T15:55:02.909Z,6.00
2019-01-06T15:57:48.362Z,6.10
2019-01-06T16:00:23.370Z,6.00
2019-01-06T16:02:54.749Z,6.20
2019-01-06T16:05:29.752Z,6.10
2019-01-06T16:08:04.682Z,6.20
2019-01-06T16:10:41.732Z,6.20
2019-01-06T16:13:16.528Z,6.20
2019-01-06T16:16:03.501Z,6.10
2019-01-06T16:18:39.180Z,6.20
2019-01-06T16:21:18.922Z,6.20
2019-01-06T16:23:58.698Z,6.20
2019-01-06T16:26:31.368Z,6.10
2019-01-06T16:32:06.038Z,6.20
2019-01-06T16:34:56.396Z,6.20
2019-01-06T16:37:31.301Z,6.20
2019-01-06T16:40:07.036Z,6.30
2019-01-06T16:42:39.683Z,6.30
2019-01-06T16:45:14.857Z,6.50
2019-01-06T16:47:46.500Z,6.50
2019-01-06T16:50:21.341Z,6.60
2019-01-06T16:52:56.154Z,6.70
2019-01-06T16:55:28.856Z,6.80
2019-01-06T16:58:04.499Z,7.00
2019-01-06T17:04:09.394Z,7.00
2019-01-06T17:06:44.666Z,7.00
2019-01-06T17:09:29.339Z,7.10
2019-01-06T17:12:03.540Z,7.50
2019-01-06T17:14:33.900Z,7.80
2019-01-06T17:17:07.195Z,8.00
2019-01-06T17:19:42.909Z,8.00
2019-01-06T17:22:18.028Z,7.80
2019-01-06T17:24:54.740Z,7.70
2019-01-06T17:27:30.457Z,7.80
2019-01-06T17:30:16.120Z,7.80
2019-01-06T17:32:48.112Z,8.00
2019-01-06T17:38:19.522Z,8.20
2019-01-06T17:40:49.118Z,8.20
2019-01-06T17:43:27.000Z,8.30
2019-01-06T17:49:14.497Z,8.20
2019-01-06T17:51:49.120Z,8.10
2019-01-06T17:54:24.979Z,8.30
2019-01-06T17:57:11.373Z,8.60
2019-01-06T17:59:46.874Z,8.90
2019-01-06T18:02:33.640Z,8.90
2019-01-06T18:05:05.385Z,8.80
2019-01-06T18:07:35.596Z,9.00
2019-01-06T18:10:10.909Z,9.30
2019-01-06T18:15:35.466Z,9.10
2019-01-06T18:18:08.346Z,9.50
2019-01-06T18:20:42.345Z,10.50
2019-01-06T18:23:17.387Z,12.10
2019-01-06T18:25:47.405Z,12.40
2019-01-06T18:28:22.516Z,13.20
2019-01-06T18:31:02.408Z,13.10
2019-01-06T18:33:49.399Z,12.50
2019-01-06T18:36:24.358Z,12.00
2019-01-06T18:38:59.859Z,11.10
2019-01-06T18:41:34.128Z,10.70
2019-01-06T18:44:09.508Z,11.00
2019-01-06T18:46:45.093Z,11.20
2019-01-06T18:52:27.920Z,10.60
2019-01-06T18:55:02.748Z,10.20
2019-01-06T18:57:37.475Z,10.10
2019-01-06T19:00:10.279Z,10.00
2019-01-06T19:02:46.284Z,10.00
2019-01-06T19:05:21.204Z,9.90
2019-01-06T19:10:49.435Z,10.50
2019-01-06T19:13:25.660Z,10.00
2019-01-06T19:16:12.509Z,10.00
2019-01-06T19:18:43.893Z,9.60
2019-01-06T19:21:14.134Z,9.30
2019-01-06T19:23:48.923Z,9.10
2019-01-06T19:29:18.493Z,8.80
2019-01-06T19:32:06.695Z,8.70
2019-01-06T19:34:42.986Z,9.10
2019-01-06T19:37:19.002Z,9.10
2019-01-06T19:39:51.452Z,9.10
2019-01-06T19:42:39.724Z,9.20
2019-01-06T19:45:13.398Z,9.10
2019-01-06T19:52:39.681Z,8.90
2019-01-06T19:55:24.298Z,8.80
2019-01-06T19:58:08.977Z,8.80
2019-01-06T20:00:38.921Z,8.70
2019-01-06T20:03:14.356Z,8.60
2019-01-06T20:05:47.047Z,8.60
2019-01-06T20:08:22.917Z,8.70
2019-01-06T20:10:57.817Z,8.70
2019-01-06T20:13:33.126Z,8.80
2019-01-06T20:16:08.095Z,8.50
2019-01-06T20:21:36.105Z,8.40
2019-01-06T20:24:09.356Z,8.30
2019-01-06T20:29:39.924Z,8.30
2019-01-06T20:32:11.304Z,8.30
2019-01-06T20:34:47.313Z,8.30
2019-01-06T20:37:20.520Z,8.30
2019-01-06T20:39:53.692Z,8.40
2019-01-06T20:42:25.124Z,8.50
2019-01-06T20:44:56.248Z,8.60
2019-01-06T20:47:26.150Z,9.00
2019-01-06T20:50:03.192Z,9.20
2019-01-06T20:52:41.930Z,9.50
2019-01-06T20:55:14.847Z,9.50
2019-01-06T21:00:49.682Z,10.10
2019-01-06T21:06:23.435Z,9.90
2019-01-06T21:08:59.257Z,9.80
2019-01-06T21:11:34.794Z,9.60
2019-01-06T21:14:10.088Z,9.30
2019-01-06T21:19:44.809Z,9.30
2019-01-06T21:22:20.818Z,9.30
2019-01-06T21:24:51.994Z,9.40
2019-01-06T21:27:27.447Z,9.30
2019-01-06T21:30:18.451Z,9.20
2019-01-06T21:33:03.694Z,9.10
2019-01-06T21:35:47.493Z,9.00
2019-01-06T21:38:21.660Z,8.90
2019-01-06T21:41:08.130Z,8.90
2019-01-06T21:43:53.359Z,8.70
2019-01-06T21:49:24.263Z,8.70
2019-01-06T21:51:59.354Z,8.70
2019-01-06T21:54:29.426Z,8.70
2019-01-06T21:57:14.119Z,8.80
2019-01-06T21:59:48.122Z,8.70
2019-01-06T22:02:33.534Z,8.70
2019-01-06T22:05:08.698Z,8.70
2019-01-06T22:07:43.483Z,8.70
2019-01-06T22:13:13.153Z,8.60
2019-01-06T22:15:48.810Z,8.60
2019-01-06T22:18:24.550Z,8.60
2019-01-06T22:20:59.026Z,8.60
2019-01-06T22:23:33.363Z,8.60
2019-01-06T22:26:22.138Z,8.50
2019-01-06T22:28:53.442Z,8.50
2019-01-06T22:31:29.458Z,8.40
2019-01-06T22:34:04.508Z,8.40
2019-01-06T22:36:45.122Z,8.30
2019-01-06T22:39:17.712Z,8.30
2019-01-06T22:41:54.134Z,8.20
2019-01-06T22:44:25.676Z,8.20
2019-01-06T22:47:00.942Z,8.20
2019-01-06T22:49:33.568Z,8.10
2019-01-06T22:55:08.039Z,7.90
2019-01-06T22:57:39.506Z,7.90
2019-01-06T23:00:34.819Z,7.80
2019-01-06T23:03:08.265Z,7.80
2019-01-06T23:05:40.813Z,7.60
2019-01-06T23:08:16.040Z,7.60
2019-01-06T23:14:01.926Z,7.60
2019-01-06T23:16:51.703Z,7.50
2019-01-06T23:19:39.015Z,7.30
2019-01-06T23:22:16.081Z,7.20
2019-01-06T23:24:51.586Z,7.10
2019-01-06T23:27:22.513Z,6.90
2019-01-06T23:29:58.363Z,6.80
2019-01-06T23:32:47.010Z,6.80
2019-01-06T23:35:19.805Z,6.80
2019-01-06T23:37:51.134Z,6.80
2019-01-06T23:40:36.902Z,6.90
2019-01-06T23:43:11.979Z,6.90
2019-01-06T23:49:00.933Z,7.00
2019-01-06T23:51:46.390Z,6.90
2019-01-06T23:54:20.767Z,6.90
2019-01-06T23:57:07.225Z,6.80
2019-01-06T23:59:41.939Z,6.80
